createdAt,value
2022-10-26T00:00:08.000Z,2.8
2022-10-26T00:03:41.000Z,3.6
2022-10-26T00:07:13.000Z,2.9
2022-10-26T00:10:46.000Z,3
2022-10-26T00:14:19.000Z,2.9
2022-10-26T00:17:10.000Z,2.4
2022-10-26T00:20:42.000Z,2.8
2022-10-26T00:24:15.000Z,2.6
2022-10-26T00:27:47.000Z,2.6
2022-10-26T00:31:20.000Z,2.7
2022-10-26T00:34:53.000Z,2.7
2022-10-26T00:38:46.000Z,2.9
2022-10-26T00:42:19.000Z,2.5
2022-10-26T00:45:51.000Z,2.5
2022-10-26T00:49:24.000Z,2.8
2022-10-26T00:52:57.000Z,2.8
2022-10-26T00:55:48.000Z,2.7
2022-10-26T00:59:20.000Z,2.7
2022-10-26T01:02:53.000Z,3
2022-10-26T01:06:26.000Z,2.8
2022-10-26T01:09:58.000Z,2.9
2022-10-26T01:13:31.000Z,3
2022-10-26T01:17:03.000Z,2.8
2022-10-26T01:20:36.000Z,3.1
2022-10-26T01:24:09.000Z,2.9
2022-10-26T01:27:41.000Z,3.2
2022-10-26T01:31:14.000Z,3.4
2022-10-26T01:34:06.000Z,3.8
2022-10-26T01:37:38.000Z,3.5
2022-10-26T01:41:11.000Z,3.1
2022-10-26T01:44:44.000Z,2.6
2022-10-26T01:48:16.000Z,3
2022-10-26T01:51:49.000Z,2.6
2022-10-26T01:55:21.000Z,2.4
2022-10-26T01:58:54.000Z,2.7
2022-10-26T02:02:27.000Z,2.7
2022-10-26T02:05:59.000Z,2.4
2022-10-26T02:09:32.000Z,2.7
2022-10-26T02:12:23.000Z,2.8
2022-10-26T02:15:56.000Z,2.3
2022-10-26T02:19:28.000Z,2.9
2022-10-26T02:23:01.000Z,3.3
2022-10-26T02:26:33.000Z,2.9
2022-10-26T02:30:06.000Z,3.8
2022-10-26T02:33:38.000Z,3.4
2022-10-26T02:37:11.000Z,3.4
2022-10-26T02:40:44.000Z,4.1
2022-10-26T02:44:16.000Z,3.7
2022-10-26T02:47:49.000Z,4.2
2022-10-26T02:50:40.000Z,4.8
2022-10-26T02:54:13.000Z,4.3
2022-10-26T02:57:45.000Z,4.8
2022-10-26T03:01:18.000Z,4.4
2022-10-26T03:04:51.000Z,4.6
2022-10-26T03:08:24.000Z,4.3
2022-10-26T03:11:56.000Z,3.9
2022-10-26T03:15:29.000Z,4.8
2022-10-26T03:19:02.000Z,4.5
2022-10-26T03:22:34.000Z,5
2022-10-26T03:26:07.000Z,5.1
2022-10-26T03:28:58.000Z,4.3
2022-10-26T03:32:30.000Z,5.2
2022-10-26T03:36:03.000Z,4.8
2022-10-26T03:39:36.000Z,3.7
2022-10-26T03:43:08.000Z,5.9
2022-10-26T03:46:41.000Z,5.4
2022-10-26T03:50:14.000Z,4.9
2022-10-26T03:53:46.000Z,3.5
2022-10-26T03:57:19.000Z,3.9
2022-10-26T04:00:51.000Z,5.9
2022-10-26T04:04:24.000Z,5.8
2022-10-26T04:07:15.000Z,5.4
2022-10-26T04:10:48.000Z,5.2
2022-10-26T04:14:20.000Z,5.6
2022-10-26T04:17:53.000Z,6.1
2022-10-26T04:21:26.000Z,6
2022-10-26T04:24:58.000Z,5.2
2022-10-26T04:28:31.000Z,4.7
2022-10-26T04:32:03.000Z,5.2
2022-10-26T04:35:36.000Z,5
2022-10-26T04:39:09.000Z,5.3
2022-10-26T04:42:42.000Z,5.6
2022-10-26T04:45:33.000Z,4.6
2022-10-26T04:49:06.000Z,4.9
2022-10-26T04:52:39.000Z,4.6
2022-10-26T04:56:12.000Z,6.2
2022-10-26T04:59:45.000Z,5.5
2022-10-26T05:03:18.000Z,4.8
2022-10-26T05:06:50.000Z,6.8
2022-10-26T05:10:23.000Z,6.5
2022-10-26T05:13:56.000Z,5.5
2022-10-26T05:17:28.000Z,6.3
2022-10-26T05:21:01.000Z,5.5
2022-10-26T05:23:52.000Z,5.1
2022-10-26T05:27:24.000Z,6.3
2022-10-26T05:30:57.000Z,6.7
2022-10-26T05:34:30.000Z,5.8
2022-10-26T05:38:06.000Z,6.1
2022-10-26T05:41:39.000Z,5.2
2022-10-26T05:45:12.000Z,5.7
2022-10-26T05:48:44.000Z,5
2022-10-26T05:52:17.000Z,4.8
2022-10-26T05:55:50.000Z,7.1
2022-10-26T05:59:22.000Z,4.7
2022-10-26T06:02:13.000Z,6.3
2022-10-26T06:05:46.000Z,9.9
2022-10-26T06:09:18.000Z,13.3
2022-10-26T06:12:51.000Z,11.7
2022-10-26T06:16:24.000Z,9.1
2022-10-26T06:19:56.000Z,9.6
2022-10-26T06:23:29.000Z,8.2
2022-10-26T06:27:02.000Z,10.4
2022-10-26T06:30:34.000Z,7.8
2022-10-26T06:34:07.000Z,9
2022-10-26T06:37:40.000Z,9
2022-10-26T06:40:32.000Z,8
2022-10-26T06:44:04.000Z,6.4
2022-10-26T06:47:37.000Z,8.4
2022-10-26T06:51:09.000Z,7.7
2022-10-26T06:54:42.000Z,7.3
2022-10-26T06:58:15.000Z,7.1
2022-10-26T07:01:47.000Z,6.9
2022-10-26T07:05:20.000Z,6.9
2022-10-26T07:08:53.000Z,7.4
2022-10-26T07:12:26.000Z,6
2022-10-26T07:15:58.000Z,6.3
2022-10-26T07:18:50.000Z,7.7
2022-10-26T07:22:22.000Z,8.8
2022-10-26T07:25:55.000Z,8.9
2022-10-26T07:29:28.000Z,8.2
2022-10-26T07:33:01.000Z,7.2
2022-10-26T07:36:33.000Z,7.3
2022-10-26T07:40:06.000Z,7.7
2022-10-26T07:43:38.000Z,6.3
2022-10-26T07:47:11.000Z,6.2
2022-10-26T07:50:44.000Z,6.2
2022-10-26T07:54:17.000Z,6
2022-10-26T07:57:07.000Z,6.3
2022-10-26T08:00:40.000Z,5.9
2022-10-26T08:04:13.000Z,5.5
2022-10-26T08:07:45.000Z,5.6
2022-10-26T08:11:18.000Z,6.1
2022-10-26T08:14:51.000Z,7.3
2022-10-26T08:18:23.000Z,7.3
2022-10-26T08:21:56.000Z,6.5
2022-10-26T08:25:29.000Z,6.2
2022-10-26T08:29:01.000Z,7.7
2022-10-26T08:32:34.000Z,7.2
2022-10-26T08:35:25.000Z,6.1
2022-10-26T08:38:57.000Z,7
2022-10-26T08:42:30.000Z,7.1
2022-10-26T08:46:02.000Z,7.6
2022-10-26T08:49:35.000Z,7.2
2022-10-26T08:53:08.000Z,8.2
2022-10-26T08:56:40.000Z,6.1
2022-10-26T09:00:16.000Z,7.3
2022-10-26T09:03:49.000Z,9.2
2022-10-26T09:07:21.000Z,8.5
2022-10-26T09:10:54.000Z,6.6
2022-10-26T09:13:45.000Z,6.9
2022-10-26T09:17:24.000Z,7.9
2022-10-26T09:21:01.000Z,8.9
2022-10-26T09:24:33.000Z,8.7
2022-10-26T09:28:06.000Z,8.9
2022-10-26T09:31:39.000Z,7.5
2022-10-26T09:35:11.000Z,7.4
2022-10-26T09:38:44.000Z,7.5
2022-10-26T09:42:17.000Z,7.2
2022-10-26T09:45:50.000Z,7.7
2022-10-26T09:49:23.000Z,8.1
2022-10-26T09:52:14.000Z,8.3
2022-10-26T09:55:47.000Z,7.7
2022-10-26T09:59:20.000Z,7.6
2022-10-26T10:02:52.000Z,7.4
2022-10-26T10:06:25.000Z,7.1
2022-10-26T10:09:58.000Z,6.5
2022-10-26T10:13:30.000Z,6.6
2022-10-26T10:17:03.000Z,6.5
2022-10-26T10:20:36.000Z,5.7
2022-10-26T10:24:08.000Z,6.4
2022-10-26T10:27:41.000Z,4.4
2022-10-26T10:30:33.000Z,4.3
2022-10-26T10:34:05.000Z,3.8
2022-10-26T10:37:38.000Z,3.2
2022-10-26T10:41:10.000Z,3.5
2022-10-26T10:44:43.000Z,3.6
2022-10-26T10:48:16.000Z,3.4
2022-10-26T10:51:48.000Z,3.9
2022-10-26T10:55:21.000Z,3.8
2022-10-26T10:58:53.000Z,3.6
2022-10-26T11:02:26.000Z,3.4
2022-10-26T11:05:59.000Z,4.3
2022-10-26T11:08:50.000Z,3.7
2022-10-26T11:12:22.000Z,4.1
2022-10-26T11:15:55.000Z,3.9
2022-10-26T11:19:28.000Z,3.9
2022-10-26T11:23:00.000Z,3.5
2022-10-26T11:26:33.000Z,3.5
2022-10-26T11:30:11.000Z,3.4
2022-10-26T11:33:43.000Z,3.8
2022-10-26T11:37:16.000Z,3.5
2022-10-26T11:40:55.000Z,3.5
2022-10-26T11:44:28.000Z,3.3
2022-10-26T11:47:19.000Z,3.4
2022-10-26T11:50:52.000Z,3.2
2022-10-26T11:54:24.000Z,3
2022-10-26T11:57:57.000Z,3.1
2022-10-26T12:01:32.000Z,3
2022-10-26T12:05:05.000Z,3.4
2022-10-26T12:08:37.000Z,3.2
2022-10-26T12:12:10.000Z,3.2
2022-10-26T12:15:43.000Z,3.1
2022-10-26T12:19:28.000Z,3.1
2022-10-26T12:23:01.000Z,3.5
2022-10-26T12:25:52.000Z,3
2022-10-26T12:29:25.000Z,3.2
2022-10-26T12:32:57.000Z,2.9
2022-10-26T12:36:30.000Z,3.2
2022-10-26T12:40:03.000Z,3.3
2022-10-26T12:47:08.000Z,3.5
2022-10-26T12:50:40.000Z,3.2
2022-10-26T12:54:13.000Z,3.3
2022-10-26T12:57:46.000Z,3
2022-10-26T13:01:18.000Z,3.4
2022-10-26T13:04:09.000Z,3.1
2022-10-26T13:07:42.000Z,3.2
2022-10-26T13:11:19.000Z,2.9
2022-10-26T13:14:52.000Z,2.9
2022-10-26T13:18:24.000Z,3
2022-10-26T13:21:57.000Z,3
2022-10-26T13:25:29.000Z,2.9
2022-10-26T13:29:02.000Z,2.7
2022-10-26T13:32:34.000Z,2.6
2022-10-26T13:36:07.000Z,2.4
2022-10-26T13:39:45.000Z,3.3
2022-10-26T13:42:37.000Z,3.1
2022-10-26T13:46:15.000Z,3.4
2022-10-26T13:49:48.000Z,3.5
2022-10-26T13:53:21.000Z,3.4
2022-10-26T13:56:53.000Z,3.7
2022-10-26T14:00:26.000Z,3.5
2022-10-26T14:03:59.000Z,4.5
2022-10-26T14:07:31.000Z,4.1
2022-10-26T14:11:04.000Z,4.3
2022-10-26T14:14:37.000Z,3.7
2022-10-26T14:18:16.000Z,3.6
2022-10-26T14:21:07.000Z,4
2022-10-26T14:24:40.000Z,3.4
2022-10-26T14:28:16.000Z,3.8
2022-10-26T14:32:20.000Z,3.9
2022-10-26T14:35:52.000Z,4.7
2022-10-26T14:39:25.000Z,4.2
2022-10-26T14:42:57.000Z,4.3
2022-10-26T14:46:30.000Z,4.2
2022-10-26T14:50:03.000Z,4.3
2022-10-26T14:53:35.000Z,4.7
2022-10-26T14:57:08.000Z,4.1
2022-10-26T14:59:59.000Z,4.3
2022-10-26T15:03:35.000Z,4.4
2022-10-26T15:07:08.000Z,4.3
2022-10-26T15:10:55.000Z,4.8
2022-10-26T15:14:27.000Z,4.5
2022-10-26T15:18:00.000Z,4.3
2022-10-26T15:21:33.000Z,4.7
2022-10-26T15:25:06.000Z,5
2022-10-26T15:28:38.000Z,5.2
2022-10-26T15:32:11.000Z,4.8
2022-10-26T15:35:44.000Z,5.3
2022-10-26T15:38:35.000Z,4.4
2022-10-26T15:42:07.000Z,4.6
2022-10-26T15:45:40.000Z,5.5
2022-10-26T15:49:13.000Z,4.5
2022-10-26T15:52:45.000Z,4.5
2022-10-26T15:56:18.000Z,5
2022-10-26T15:59:51.000Z,4.9
2022-10-26T16:03:25.000Z,4.1
2022-10-26T16:06:57.000Z,4.9
2022-10-26T16:10:30.000Z,4.9
2022-10-26T16:14:02.000Z,4.8
2022-10-26T16:16:53.000Z,5.3
2022-10-26T16:20:26.000Z,5.6
2022-10-26T16:23:59.000Z,12.8
2022-10-26T16:27:32.000Z,9.5
2022-10-26T16:31:05.000Z,5.7
2022-10-26T16:34:37.000Z,5.3
2022-10-26T16:38:10.000Z,6.1
2022-10-26T16:41:42.000Z,6
2022-10-26T16:45:15.000Z,5.3
2022-10-26T16:48:47.000Z,4.8
2022-10-26T16:52:20.000Z,5.2
2022-10-26T16:55:11.000Z,5.6
2022-10-26T16:58:44.000Z,5.5
2022-10-26T17:02:16.000Z,5.8
2022-10-26T17:05:49.000Z,5.6
2022-10-26T17:09:22.000Z,6
2022-10-26T17:12:55.000Z,5.9
2022-10-26T17:16:27.000Z,4.9
2022-10-26T17:20:00.000Z,6.3
2022-10-26T17:23:32.000Z,7.1
2022-10-26T17:27:05.000Z,11.8
2022-10-26T17:30:38.000Z,7.6
2022-10-26T17:33:29.000Z,6.5
2022-10-26T17:37:01.000Z,6.3
2022-10-26T17:40:34.000Z,5
2022-10-26T17:44:07.000Z,5.7
2022-10-26T17:47:39.000Z,5.2
2022-10-26T17:51:12.000Z,5.8
2022-10-26T17:54:45.000Z,5.7
2022-10-26T17:58:17.000Z,5.4
2022-10-26T18:01:50.000Z,7.8
2022-10-26T18:05:23.000Z,6
2022-10-26T18:08:55.000Z,6.3
2022-10-26T18:11:46.000Z,6.1
2022-10-26T18:15:21.000Z,6.7
2022-10-26T18:18:53.000Z,5.2
2022-10-26T18:22:27.000Z,6.7
2022-10-26T18:25:59.000Z,6.9
2022-10-26T18:29:38.000Z,8.1
2022-10-26T18:33:11.000Z,7.9
2022-10-26T18:36:43.000Z,7.6
2022-10-26T18:40:16.000Z,7.5
2022-10-26T18:43:48.000Z,7.1
2022-10-26T18:47:21.000Z,8
2022-10-26T18:50:12.000Z,7.8
2022-10-26T18:53:45.000Z,6.6
2022-10-26T18:57:17.000Z,8.1
2022-10-26T19:00:50.000Z,8.2
2022-10-26T19:04:23.000Z,9
2022-10-26T19:07:55.000Z,8.3
2022-10-26T19:11:28.000Z,8.9
2022-10-26T19:15:00.000Z,8.6
2022-10-26T19:22:18.000Z,8.9
2022-10-26T19:25:51.000Z,9
2022-10-26T19:28:42.000Z,8.9
2022-10-26T19:32:14.000Z,12.9
2022-10-26T19:35:47.000Z,12.1
2022-10-26T19:39:24.000Z,12.1
2022-10-26T19:42:57.000Z,11.6
2022-10-26T19:46:29.000Z,11.6
2022-10-26T19:50:02.000Z,8.5
2022-10-26T19:53:35.000Z,10.8
2022-10-26T19:57:07.000Z,10.6
2022-10-26T20:00:40.000Z,9
2022-10-26T20:04:12.000Z,10.3
2022-10-26T20:07:03.000Z,10.3
2022-10-26T20:10:36.000Z,11.2
2022-10-26T20:14:09.000Z,11.8
2022-10-26T20:17:41.000Z,11.6
2022-10-26T20:21:14.000Z,11.6
2022-10-26T20:24:47.000Z,12.2
2022-10-26T20:28:23.000Z,12
2022-10-26T20:31:56.000Z,8.7
2022-10-26T20:35:29.000Z,11.1
2022-10-26T20:39:01.000Z,13.2
2022-10-26T20:42:34.000Z,12.4
2022-10-26T20:45:25.000Z,13.3
2022-10-26T20:48:58.000Z,12.9
2022-10-26T20:52:30.000Z,11.1
2022-10-26T20:56:03.000Z,10.5
2022-10-26T20:59:35.000Z,11.1
2022-10-26T21:03:08.000Z,11
2022-10-26T21:06:41.000Z,12.6
2022-10-26T21:10:13.000Z,10.5
2022-10-26T21:13:46.000Z,11.8
2022-10-26T21:17:19.000Z,12.6
2022-10-26T21:20:51.000Z,15.8
2022-10-26T21:23:43.000Z,10.4
2022-10-26T21:27:15.000Z,7.2
2022-10-26T21:30:48.000Z,7.4
2022-10-26T21:34:20.000Z,6.9
2022-10-26T21:37:53.000Z,6.4
2022-10-26T21:41:26.000Z,6.3
2022-10-26T21:44:58.000Z,5.2
2022-10-26T21:48:31.000Z,5.6
2022-10-26T21:52:03.000Z,5.2
2022-10-26T21:55:36.000Z,5.4
2022-10-26T21:59:09.000Z,5.2
2022-10-26T22:02:00.000Z,5.1
2022-10-26T22:05:33.000Z,7.2
2022-10-26T22:09:10.000Z,15
2022-10-26T22:12:43.000Z,13.4
2022-10-26T22:16:16.000Z,9.5
2022-10-26T22:19:49.000Z,9.1
2022-10-26T22:23:21.000Z,10.1
2022-10-26T22:26:54.000Z,11.8
2022-10-26T22:30:31.000Z,7.9
2022-10-26T22:34:04.000Z,7.6
2022-10-26T22:37:37.000Z,10.2
2022-10-26T22:40:28.000Z,9.8
2022-10-26T22:44:00.000Z,10
2022-10-26T22:47:33.000Z,9.2
2022-10-26T22:51:06.000Z,8
2022-10-26T22:54:38.000Z,8.7
2022-10-26T22:58:11.000Z,7.7
2022-10-26T23:01:44.000Z,7.1
2022-10-26T23:05:17.000Z,9.2
2022-10-26T23:08:49.000Z,9.3
2022-10-26T23:12:22.000Z,8.2
2022-10-26T23:15:55.000Z,9.1
2022-10-26T23:18:46.000Z,9.1
2022-10-26T23:22:18.000Z,8.4
2022-10-26T23:25:51.000Z,9.4
2022-10-26T23:29:24.000Z,9.7
2022-10-26T23:32:56.000Z,10.1
2022-10-26T23:36:29.000Z,9.2
2022-10-26T23:40:02.000Z,8.6
2022-10-26T23:43:34.000Z,9.6
2022-10-26T23:47:07.000Z,8.6
2022-10-26T23:50:40.000Z,7.7
2022-10-26T23:54:12.000Z,7.3
2022-10-26T23:57:03.000Z,6.7
